This is the latest recevied weather packets stored in our database for station/object IW2LSY-11. If no packets are shown the sender has not sent any weather packets the latest 10 day(s).
| Time | Temp. | Humidity | Pressure | Rain* | Wind** | Luminosity | Snow |
|---|---|---|---|---|---|---|---|
| 1777513214 | 12.22° C | 86% | 1021.5 hPa | - | - | 301 W/m² | - |
| 1777512615 | 12.22° C | 85% | 1021.4 hPa | - | - | 301 W/m² | - |
| 1777512004 | 12.78° C | 84% | 1021.4 hPa | - | - | 301 W/m² | - |
| 1777511405 | 12.22° C | 88% | 1021.4 hPa | - | - | 301 W/m² | - |
| 1777510805 | 12.22° C | 88% | 1021.4 hPa | - | - | 302 W/m² | - |
| 1777510206 | 12.22° C | 88% | 1021.4 hPa | - | - | 303 W/m² | - |
| 1777509606 | 12.22° C | 86% | 1021.3 hPa | - | - | 303 W/m² | - |
| 1777509007 | 12.22° C | 90% | 1021.2 hPa | - | - | 303 W/m² | - |
| 1777508407 | 12.78° C | 87% | 1021.3 hPa | - | - | 303 W/m² | - |
| 1777507807 | 12.22° C | 92% | 1021.1 hPa | - | - | 304 W/m² | - |
| 1777507208 | 12.22° C | 93% | 1021.1 hPa | - | - | 305 W/m² | - |
| 1777506608 | 12.78° C | 87% | 1021 hPa | - | - | 305 W/m² | - |
| 1777506009 | 12.78° C | 91% | 1020.9 hPa | - | - | 305 W/m² | - |
| 1777505409 | 12.22° C | 96% | 1020.8 hPa | - | - | 305 W/m² | - |
| 1777504810 | 12.22° C | 95% | 1020.7 hPa | - | - | 306 W/m² | - |
| 1777504210 | 12.78° C | 91% | 1020.5 hPa | - | - | 306 W/m² | - |
| 1777503609 | 13.33° C | 91% | 1020.4 hPa | - | - | 306 W/m² | - |
| 1777503009 | 13.33° C | 92% | 1020.4 hPa | - | - | 307 W/m² | - |
| 1777502410 | 12.78° C | 95% | 1020.3 hPa | - | - | 308 W/m² | - |
| 1777501811 | 12.78° C | 96% | 1020.2 hPa | - | - | 308 W/m² | - |
| 1777501211 | 12.78° C | 97% | 1020 hPa | - | - | 309 W/m² | - |
| 1777500611 | 13.89° C | 93% | 1019.9 hPa | - | - | 310 W/m² | - |
| 1777500011 | 13.33° C | 96% | 1019.8 hPa | - | - | 310 W/m² | - |
| 1777499411 | 13.89° C | 94% | 1019.8 hPa | - | - | 311 W/m² | - |
| 1777498811 | 13.89° C | 93% | 1019.8 hPa | - | - | 311 W/m² | - |
* Rain since midnight (hover to see other rain measurements)
** Current wind speed in m/s (hover to see current wind gust speed)